createdAt,value
2018-06-10T03:01:05.690Z,24.00
2018-06-10T03:02:07.953Z,28.00
2018-06-10T03:03:07.310Z,28.00
2018-06-10T03:04:07.130Z,32.00
2018-06-10T03:05:04.462Z,32.00
2018-06-10T03:06:04.206Z,36.00
2018-06-10T03:07:04.325Z,36.00
2018-06-10T03:08:04.530Z,44.00
2018-06-10T03:09:04.717Z,48.00
2018-06-10T03:10:04.927Z,52.00
2018-06-10T03:11:05.129Z,52.00
2018-06-10T03:12:05.234Z,60.00
2018-06-10T03:13:05.332Z,64.00
2018-06-10T03:14:05.498Z,72.00
2018-06-10T03:15:05.745Z,76.00
2018-06-10T03:16:06.044Z,80.00
2018-06-10T03:17:06.028Z,88.00
2018-06-10T03:18:06.211Z,96.00
2018-06-10T03:19:06.503Z,108.00
2018-06-10T03:20:06.578Z,116.00
2018-06-10T03:21:06.879Z,120.00
2018-06-10T03:22:07.070Z,128.00
2018-06-10T03:23:07.189Z,136.00
2018-06-10T03:24:07.292Z,140.00
2018-06-10T03:25:07.551Z,148.00
2018-06-10T03:26:07.684Z,160.00
2018-06-10T03:27:07.926Z,168.00
2018-06-10T03:28:08.036Z,176.00
2018-06-10T03:29:08.359Z,188.00
2018-06-10T03:30:08.439Z,204.00
2018-06-10T03:31:08.604Z,220.00
2018-06-10T03:32:08.680Z,240.00
2018-06-10T03:33:08.871Z,264.00
2018-06-10T03:34:09.107Z,288.00
2018-06-10T03:35:09.255Z,308.00
2018-06-10T03:36:09.314Z,324.00
2018-06-10T03:37:09.537Z,336.00
2018-06-10T03:38:09.683Z,344.00
2018-06-10T03:39:09.934Z,348.00
2018-06-10T03:40:10.090Z,356.00
2018-06-10T03:41:10.268Z,360.00
2018-06-10T03:42:10.378Z,360.00
2018-06-10T03:43:10.644Z,356.00
2018-06-10T03:44:10.833Z,352.00
2018-06-10T03:45:11.011Z,352.00
2018-06-10T03:46:11.194Z,352.00
2018-06-10T03:47:11.369Z,356.00
2018-06-10T03:48:11.578Z,356.00
2018-06-10T03:49:11.719Z,360.00
2018-06-10T03:50:11.884Z,364.00
2018-06-10T03:51:12.061Z,372.00
2018-06-10T03:52:12.183Z,388.00
2018-06-10T03:53:12.328Z,396.00
2018-06-10T03:54:12.425Z,408.00
2018-06-10T03:55:12.733Z,420.00
2018-06-10T03:56:12.907Z,424.00
2018-06-10T03:57:12.992Z,424.00
2018-06-10T03:58:13.279Z,424.00
2018-06-10T03:59:13.307Z,428.00
2018-06-10T04:00:13.492Z,432.00
2018-06-10T04:01:13.704Z,452.00
2018-06-10T04:02:13.912Z,484.00
2018-06-10T04:03:14.081Z,516.00
2018-06-10T04:04:14.190Z,552.00
2018-06-10T04:05:14.420Z,584.00
2018-06-10T04:06:14.550Z,608.00
2018-06-10T04:07:14.752Z,628.00
2018-06-10T04:08:15.007Z,636.00
2018-06-10T04:09:15.074Z,644.00
2018-06-10T04:10:15.307Z,656.00
2018-06-10T04:11:15.505Z,672.00
2018-06-10T04:12:15.614Z,696.00
2018-06-10T04:13:15.722Z,720.00
2018-06-10T04:14:15.998Z,732.00
2018-06-10T04:15:16.222Z,740.00
2018-06-10T04:16:16.245Z,752.00
2018-06-10T04:17:16.459Z,768.00
2018-06-10T04:18:16.708Z,776.00
2018-06-10T04:19:16.770Z,780.00
2018-06-10T04:20:16.977Z,772.00
2018-06-10T04:21:17.175Z,760.00
2018-06-10T04:22:17.263Z,748.00
2018-06-10T04:23:17.420Z,736.00
2018-06-10T04:24:17.743Z,728.00
2018-06-10T04:25:17.857Z,728.00
2018-06-10T04:26:18.059Z,732.00
2018-06-10T04:27:18.185Z,744.00
2018-06-10T04:28:18.426Z,768.00
2018-06-10T04:29:18.578Z,788.00
2018-06-10T04:30:18.725Z,812.00
2018-06-10T04:31:18.896Z,832.00
2018-06-10T04:32:19.127Z,852.00
2018-06-10T04:33:19.289Z,876.00
2018-06-10T04:34:19.341Z,896.00
2018-06-10T04:35:19.618Z,916.00
2018-06-10T04:36:19.721Z,932.00
2018-06-10T04:37:19.938Z,940.00
2018-06-10T04:38:20.164Z,952.00
2018-06-10T04:39:20.332Z,960.00
2018-06-10T04:40:20.514Z,980.00
2018-06-10T04:41:20.663Z,1004.00
2018-06-10T04:42:20.843Z,1036.00
2018-06-10T04:43:21.108Z,1076.00
2018-06-10T04:44:21.277Z,1112.00
2018-06-10T04:45:21.371Z,1148.00
2018-06-10T04:46:21.584Z,1184.00
2018-06-10T04:47:21.734Z,1220.00
2018-06-10T04:48:21.831Z,1252.00
2018-06-10T04:49:22.143Z,1288.00
2018-06-10T04:50:22.209Z,1324.00
2018-06-10T04:51:22.481Z,1360.00
2018-06-10T04:52:22.509Z,1400.00
2018-06-10T04:53:22.791Z,1436.00
2018-06-10T04:54:22.904Z,1480.00
2018-06-10T04:55:23.091Z,1528.00
2018-06-10T04:56:23.271Z,1588.00
2018-06-10T04:57:23.495Z,1660.00
2018-06-10T04:58:23.612Z,1732.00
2018-06-10T04:59:23.740Z,1788.00
2018-06-10T05:00:24.086Z,1828.00
2018-06-10T05:01:24.159Z,1844.00
2018-06-10T05:02:24.351Z,1852.00
2018-06-10T05:03:24.560Z,1868.00
2018-06-10T05:04:24.657Z,1896.00
2018-06-10T05:05:24.831Z,1940.00
2018-06-10T05:06:25.051Z,2008.00
2018-06-10T05:07:25.177Z,2096.00
2018-06-10T05:08:25.360Z,2192.00
2018-06-10T05:09:25.447Z,2280.00
2018-06-10T05:10:25.714Z,2356.00
2018-06-10T05:11:25.771Z,2408.00
2018-06-10T05:12:25.941Z,2428.00
2018-06-10T05:13:26.154Z,2432.00
2018-06-10T05:14:26.365Z,2416.00
2018-06-10T05:15:26.563Z,2392.00
2018-06-10T05:16:26.692Z,2360.00
2018-06-10T05:17:26.942Z,2328.00
2018-06-10T05:18:27.003Z,2300.00
2018-06-10T05:19:27.157Z,2296.00
2018-06-10T05:20:27.434Z,2284.00
2018-06-10T05:21:27.533Z,2272.00
2018-06-10T05:22:27.785Z,2240.00
2018-06-10T05:23:27.963Z,2176.00
2018-06-10T05:24:28.032Z,2104.00
2018-06-10T05:25:28.150Z,2020.00
2018-06-10T05:26:28.322Z,1928.00
2018-06-10T05:27:28.598Z,1840.00
2018-06-10T05:28:28.687Z,1740.00
2018-06-10T05:29:28.885Z,1656.00
2018-06-10T05:30:29.026Z,1584.00
2018-06-10T05:31:29.247Z,1520.00
2018-06-10T05:32:29.314Z,1464.00
2018-06-10T05:33:29.546Z,1420.00
2018-06-10T05:34:29.768Z,1388.00
2018-06-10T05:35:29.924Z,1360.00
2018-06-10T05:36:30.086Z,1340.00
2018-06-10T05:37:30.289Z,1324.00
2018-06-10T05:38:30.456Z,1308.00
2018-06-10T05:39:30.579Z,1304.00
2018-06-10T05:40:30.729Z,1308.00
2018-06-10T05:41:30.865Z,1308.00
2018-06-10T05:42:31.108Z,1316.00
2018-06-10T05:43:31.322Z,1328.00
2018-06-10T05:44:31.414Z,1336.00
2018-06-10T05:45:31.657Z,1340.00
2018-06-10T05:46:31.808Z,1340.00
2018-06-10T05:47:31.864Z,1332.00
2018-06-10T05:48:32.085Z,1324.00
2018-06-10T05:49:32.327Z,1320.00
2018-06-10T05:50:32.438Z,1320.00
2018-06-10T05:51:32.594Z,1328.00
2018-06-10T05:52:32.853Z,1344.00
2018-06-10T05:53:33.025Z,1356.00
2018-06-10T05:54:33.132Z,1376.00
2018-06-10T05:55:33.241Z,1400.00
2018-06-10T05:56:33.508Z,1424.00
2018-06-10T05:57:33.670Z,1460.00
2018-06-10T05:58:33.760Z,1496.00
2018-06-10T05:59:33.973Z,1536.00
2018-06-10T06:00:34.115Z,1580.00
2018-06-10T06:01:34.327Z,1624.00
2018-06-10T06:02:34.536Z,1668.00
2018-06-10T06:03:34.672Z,1716.00
2018-06-10T06:04:34.795Z,1764.00
2018-06-10T06:05:34.927Z,1816.00
2018-06-10T06:06:35.203Z,1884.00
2018-06-10T06:07:35.373Z,1964.00
2018-06-10T06:08:35.495Z,2052.00
2018-06-10T06:09:35.692Z,2148.00
2018-06-10T06:10:35.847Z,2228.00
2018-06-10T06:11:36.022Z,2296.00
2018-06-10T06:12:36.125Z,2348.00
2018-06-10T06:13:36.386Z,2392.00
2018-06-10T06:14:36.530Z,2432.00
2018-06-10T06:15:36.762Z,2468.00
2018-06-10T06:16:36.879Z,2500.00
2018-06-10T06:17:37.113Z,2520.00
2018-06-10T06:18:37.287Z,2528.00
2018-06-10T06:19:37.447Z,2520.00
2018-06-10T06:20:37.517Z,2480.00
2018-06-10T06:21:37.822Z,2428.00
2018-06-10T06:22:37.969Z,2368.00
2018-06-10T06:23:38.187Z,2312.00
2018-06-10T06:24:38.322Z,2284.00
2018-06-10T06:25:38.411Z,2276.00
2018-06-10T06:26:38.787Z,2280.00
2018-06-10T06:27:38.870Z,2288.00
2018-06-10T06:28:38.934Z,2292.00
2018-06-10T06:29:39.224Z,2296.00
2018-06-10T06:30:39.333Z,2296.00
2018-06-10T06:31:39.526Z,2304.00
2018-06-10T06:32:39.624Z,2312.00
2018-06-10T06:33:40.025Z,2332.00
2018-06-10T06:34:40.000Z,2352.00
2018-06-10T06:35:40.954Z,2396.00
2018-06-10T06:36:40.661Z,2460.00
2018-06-10T06:37:40.509Z,2540.00
2018-06-10T06:38:40.693Z,2632.00
2018-06-10T06:39:40.961Z,2724.00
2018-06-10T06:40:41.135Z,2812.00
2018-06-10T06:41:41.282Z,2896.00
2018-06-10T06:42:41.511Z,2964.00
2018-06-10T06:43:41.690Z,3020.00
2018-06-10T06:44:41.877Z,3076.00
2018-06-10T06:45:42.078Z,3136.00
2018-06-10T06:46:42.162Z,3196.00
2018-06-10T06:47:42.286Z,3260.00
2018-06-10T06:48:42.516Z,3308.00
2018-06-10T06:49:42.590Z,3356.00
2018-06-10T06:50:42.800Z,3388.00
2018-06-10T06:51:42.949Z,3416.00
2018-06-10T06:52:43.176Z,3436.00
2018-06-10T06:53:43.341Z,3472.00
2018-06-10T06:54:43.587Z,3516.00
2018-06-10T06:55:43.778Z,3588.00
2018-06-10T06:56:44.007Z,3688.00
2018-06-10T06:57:44.185Z,3796.00
2018-06-10T06:58:44.343Z,3908.00
2018-06-10T06:59:44.515Z,4024.00
2018-06-10T07:00:44.716Z,4144.00
2018-06-10T07:01:44.829Z,4252.00
2018-06-10T07:02:44.982Z,4360.00
2018-06-10T07:03:45.288Z,4480.00
2018-06-10T07:04:45.426Z,4620.00
2018-06-10T07:05:45.585Z,4796.00
2018-06-10T07:06:45.816Z,5000.00
2018-06-10T07:07:45.933Z,5204.00
2018-06-10T07:08:46.123Z,5412.00
2018-06-10T07:09:46.322Z,5612.00
2018-06-10T07:10:46.414Z,5788.00
2018-06-10T07:11:46.572Z,5936.00
2018-06-10T07:12:46.785Z,6052.00
2018-06-10T07:13:46.982Z,6140.00
2018-06-10T07:14:47.102Z,6208.00
2018-06-10T07:15:47.235Z,6252.00
2018-06-10T07:16:47.494Z,6320.00
2018-06-10T07:17:47.718Z,6452.00
2018-06-10T07:18:47.779Z,6660.00
2018-06-10T07:19:48.023Z,6932.00
2018-06-10T07:20:48.325Z,7236.00
2018-06-10T07:21:48.472Z,7560.00
2018-06-10T07:22:48.676Z,7912.00
2018-06-10T07:23:48.819Z,8248.00
2018-06-10T07:24:49.015Z,8524.00
2018-06-10T07:25:49.125Z,8692.00
2018-06-10T07:26:49.249Z,8732.00
2018-06-10T07:27:49.443Z,8636.00
2018-06-10T07:28:49.609Z,8448.00
2018-06-10T07:29:49.807Z,8172.00
2018-06-10T07:30:49.934Z,7920.00
2018-06-10T07:31:50.102Z,7716.00
2018-06-10T07:32:50.345Z,7568.00
2018-06-10T07:33:50.492Z,7444.00
2018-06-10T07:34:50.735Z,7392.00
2018-06-10T07:35:50.874Z,7428.00
2018-06-10T07:36:51.128Z,7576.00
2018-06-10T07:37:51.291Z,7800.00
2018-06-10T07:38:51.463Z,7996.00
2018-06-10T07:39:51.623Z,8144.00
2018-06-10T07:40:51.777Z,8264.00
2018-06-10T07:41:51.887Z,8436.00
2018-06-10T07:42:52.077Z,8688.00
2018-06-10T07:43:52.210Z,9012.00
2018-06-10T07:44:52.457Z,9344.00
2018-06-10T07:45:52.548Z,9660.00
2018-06-10T07:46:52.791Z,9960.00
2018-06-10T07:47:53.015Z,10260.00
2018-06-10T07:48:53.190Z,10560.00
2018-06-10T07:49:53.293Z,10812.00
2018-06-10T07:50:53.554Z,10988.00
2018-06-10T07:51:53.792Z,11060.00
2018-06-10T07:52:53.721Z,11056.00
2018-06-10T07:53:54.014Z,11044.00
2018-06-10T07:54:54.122Z,11040.00
2018-06-10T07:55:54.260Z,11000.00
2018-06-10T07:56:54.515Z,11004.00
2018-06-10T07:57:54.666Z,11088.00
2018-06-10T07:58:54.740Z,11260.00
2018-06-10T07:59:55.053Z,11532.00
2018-06-10T08:00:55.196Z,11840.00
2018-06-10T08:01:55.384Z,12184.00
2018-06-10T08:02:55.612Z,12544.00
2018-06-10T08:03:55.741Z,12844.00
2018-06-10T08:04:55.946Z,13092.00
2018-06-10T08:05:56.040Z,13232.00
2018-06-10T08:06:56.305Z,13164.00
2018-06-10T08:07:56.463Z,12952.00
2018-06-10T08:08:56.582Z,12608.00
2018-06-10T08:09:56.753Z,12064.00
2018-06-10T08:10:56.899Z,11388.00
2018-06-10T08:11:57.126Z,10460.00
2018-06-10T08:12:57.215Z,9464.00
2018-06-10T08:13:57.416Z,8420.00
2018-06-10T08:14:57.615Z,7448.00
2018-06-10T08:15:57.881Z,6668.00
2018-06-10T08:16:58.025Z,6004.00
2018-06-10T08:19:47.686Z,4416.00
2018-06-10T08:20:51.217Z,3948.00
2018-06-10T08:21:50.795Z,3552.00
2018-06-10T08:22:50.735Z,3264.00
2018-06-10T08:23:49.228Z,3112.00
2018-06-10T08:24:46.739Z,3024.00
2018-06-10T08:25:46.340Z,3072.00
2018-06-10T08:26:46.428Z,3200.00
2018-06-10T08:27:46.550Z,3332.00
2018-06-10T08:28:46.787Z,3420.00
2018-06-10T08:29:47.040Z,3472.00
2018-06-10T08:30:47.165Z,3516.00
2018-06-10T08:31:47.303Z,3576.00
2018-06-10T08:32:47.326Z,3676.00
2018-06-10T08:33:47.541Z,3820.00
2018-06-10T08:34:47.796Z,4020.00
2018-06-10T08:35:47.874Z,4228.00
2018-06-10T08:36:48.104Z,4420.00
2018-06-10T08:37:48.219Z,4572.00
2018-06-10T08:38:48.418Z,4752.00
2018-06-10T08:39:48.679Z,4940.00
2018-06-10T08:40:48.829Z,5164.00
2018-06-10T08:41:48.924Z,5420.00
2018-06-10T08:42:49.289Z,5656.00
2018-06-10T08:43:49.456Z,5892.00
2018-06-10T08:44:49.552Z,6100.00
2018-06-10T08:45:49.756Z,6244.00
2018-06-10T08:46:49.865Z,6320.00
2018-06-10T08:47:50.021Z,6352.00
2018-06-10T08:48:50.131Z,6376.00
2018-06-10T08:49:50.409Z,6432.00
2018-06-10T08:50:50.612Z,6484.00
2018-06-10T08:51:50.619Z,6476.00
2018-06-10T08:52:50.932Z,6392.00
2018-06-10T08:53:50.923Z,6248.00
2018-06-10T08:54:51.235Z,6108.00
2018-06-10T08:55:51.478Z,6012.00
2018-06-10T08:56:51.601Z,5968.00
2018-06-10T08:57:51.872Z,5980.00
2018-06-10T08:58:51.970Z,6028.00
2018-06-10T08:59:52.040Z,6112.00
2018-06-10T09:00:52.222Z,6260.00
2018-06-10T09:01:52.396Z,6420.00
2018-06-10T09:02:52.583Z,6592.00
2018-06-10T09:03:52.665Z,6808.00
2018-06-10T09:04:52.896Z,7080.00
2018-06-10T09:05:53.102Z,7468.00
2018-06-10T09:06:53.341Z,7976.00
2018-06-10T09:07:53.407Z,8568.00
2018-06-10T09:08:53.829Z,9220.00
2018-06-10T09:09:53.839Z,9952.00
2018-06-10T09:10:53.988Z,10720.00
2018-06-10T09:11:54.041Z,11512.00
2018-06-10T09:12:54.233Z,12324.00
2018-06-10T09:13:54.339Z,13128.00
2018-06-10T09:14:54.673Z,13940.00
2018-06-10T09:15:54.753Z,14608.00
2018-06-10T09:16:54.980Z,15012.00
2018-06-10T09:17:55.187Z,15016.00
2018-06-10T09:18:55.325Z,14716.00
2018-06-10T09:19:55.592Z,14116.00
2018-06-10T09:20:55.664Z,13292.00
2018-06-10T09:21:55.833Z,12576.00
2018-06-10T09:22:55.979Z,12252.00
2018-06-10T09:23:56.198Z,12156.00
2018-06-10T09:24:56.371Z,12140.00
2018-06-10T09:25:56.558Z,12204.00
2018-06-10T09:26:56.690Z,12352.00
2018-06-10T09:27:56.827Z,12540.00
2018-06-10T09:28:57.046Z,12772.00
2018-06-10T09:29:57.228Z,13012.00
2018-06-10T09:30:57.462Z,13232.00
2018-06-10T09:31:57.599Z,13520.00
2018-06-10T09:32:57.735Z,13796.00
2018-06-10T09:33:57.953Z,14032.00
2018-06-10T09:34:58.143Z,14260.00
2018-06-10T09:35:58.237Z,14408.00
2018-06-10T09:36:58.455Z,14476.00
2018-06-10T09:37:58.671Z,14420.00
2018-06-10T09:38:58.819Z,14196.00
2018-06-10T09:39:58.973Z,13884.00
2018-06-10T09:40:59.161Z,13516.00
2018-06-10T09:41:59.259Z,13140.00
2018-06-10T09:42:59.515Z,12944.00
2018-06-10T09:43:59.701Z,12408.00
2018-06-10T09:44:59.992Z,11980.00
2018-06-10T09:46:00.112Z,11440.00
2018-06-10T09:47:00.672Z,11004.00
2018-06-10T09:56:35.202Z,13572.00
2018-06-10T09:57:32.832Z,14628.00
2018-06-10T09:58:34.023Z,16032.00
2018-06-10T09:59:34.158Z,17792.00
2018-06-10T10:00:31.805Z,19872.00
2018-06-10T10:01:31.933Z,21472.00
2018-06-10T10:02:32.086Z,21728.00
2018-06-10T10:03:32.269Z,22848.00
2018-06-10T10:04:32.672Z,24416.00
2018-06-10T10:05:32.912Z,30400.00
2018-06-10T10:06:32.986Z,25312.00
2018-06-10T10:11:15.009Z,25696.00
2018-06-10T10:12:05.321Z,26976.00
2018-06-10T10:13:16.235Z,23264.00
2018-06-10T10:14:13.140Z,21440.00
2018-06-10T10:16:19.018Z,22272.00
2018-06-10T10:17:09.747Z,27104.00
2018-06-10T10:18:04.618Z,21408.00
2018-06-10T10:19:04.984Z,17504.00
2018-06-10T11:26:32.384Z,50240.00
2018-06-10T11:27:29.467Z,54912.00
2018-06-10T11:33:26.716Z,62592.00
2018-06-10T11:38:26.458Z,58240.00
2018-06-10T11:41:37.682Z,51936.00
2018-06-10T11:42:22.909Z,60832.00
2018-06-10T14:30:16.651Z,59584.00
2018-06-10T14:31:01.729Z,60288.00
2018-06-10T14:36:47.043Z,14148.00
2018-06-10T14:39:20.174Z,13312.00
2018-06-10T14:40:51.758Z,13040.00
2018-06-10T14:41:49.125Z,14356.00
2018-06-10T14:42:57.085Z,60224.00
2018-06-10T14:43:57.507Z,55904.00
2018-06-10T14:44:52.545Z,55520.00
2018-06-10T14:45:56.934Z,13260.00
2018-06-10T14:47:05.008Z,11820.00
2018-06-10T14:48:17.912Z,29184.00
2018-06-10T14:48:49.977Z,56480.00
2018-06-10T14:50:49.521Z,53568.00
2018-06-10T14:51:49.667Z,55584.00
2018-06-10T14:52:49.566Z,55776.00
2018-06-10T14:53:47.409Z,55744.00
2018-06-10T14:54:47.759Z,54816.00
2018-06-10T14:55:49.246Z,54592.00
2018-06-10T14:56:47.558Z,52128.00
2018-06-10T14:57:50.615Z,24416.00
2018-06-10T14:58:51.291Z,48800.00
2018-06-10T15:49:40.607Z,34112.00
2018-06-10T15:50:44.822Z,33568.00
2018-06-10T15:52:12.200Z,29888.00
2018-06-10T15:55:23.840Z,10536.00
2018-06-10T17:45:19.253Z,3472.00
2018-06-10T17:47:34.271Z,3372.00
2018-06-10T17:48:24.230Z,3332.00
2018-06-10T17:49:25.769Z,3296.00
2018-06-10T17:51:21.546Z,3184.00
2018-06-10T17:52:23.490Z,3120.00
2018-06-10T17:53:23.816Z,3056.00
2018-06-10T17:54:22.371Z,2996.00
2018-06-10T17:55:23.058Z,2960.00
2018-06-10T17:56:21.872Z,2920.00
2018-06-10T17:57:20.843Z,2872.00
2018-06-10T17:58:19.900Z,2804.00
2018-06-10T17:59:19.815Z,2744.00
2018-06-10T18:00:20.888Z,2660.00
2018-06-10T18:01:22.147Z,2576.00
2018-06-10T18:02:21.526Z,2504.00
2018-06-10T18:03:20.757Z,2476.00
2018-06-10T18:04:22.012Z,2484.00
2018-06-10T18:05:22.239Z,2504.00
2018-06-10T18:06:22.306Z,2480.00
2018-06-10T18:07:21.097Z,2440.00
2018-06-10T18:08:21.392Z,2448.00
2018-06-10T18:09:23.175Z,2476.00
2018-06-10T18:10:21.702Z,2492.00
2018-06-10T18:11:21.699Z,2516.00
2018-06-10T18:12:21.683Z,2544.00
2018-06-10T18:13:21.774Z,2564.00
2018-06-10T18:14:23.216Z,2588.00
2018-06-10T18:15:27.780Z,2608.00
2018-06-10T18:16:22.530Z,2616.00
2018-06-10T18:17:23.058Z,2612.00
2018-06-10T18:18:24.467Z,2576.00
2018-06-10T18:19:23.439Z,2512.00
2018-06-10T18:20:23.628Z,2440.00
2018-06-10T18:21:23.850Z,2368.00
2018-06-10T18:22:24.572Z,2316.00
2018-06-10T18:23:25.088Z,2280.00
2018-06-10T18:24:26.075Z,2244.00
2018-06-10T18:25:24.713Z,2204.00
2018-06-10T18:26:26.497Z,2152.00
2018-06-10T18:27:25.049Z,2096.00
2018-06-10T18:28:24.387Z,2048.00
2018-06-10T18:29:25.150Z,1992.00
2018-06-10T18:30:24.606Z,1932.00
2018-06-10T18:31:58.097Z,1872.00
2018-06-10T18:33:26.042Z,1784.00
2018-06-10T18:34:25.874Z,1764.00
2018-06-10T18:35:25.827Z,1748.00
2018-06-10T18:36:25.965Z,1728.00
2018-06-10T18:37:26.424Z,1704.00
2018-06-10T18:38:26.696Z,1676.00
2018-06-10T18:39:26.692Z,1636.00
2018-06-10T18:40:27.455Z,1584.00
2018-06-10T18:41:29.019Z,1528.00
2018-06-10T18:42:28.555Z,1468.00
2018-06-10T18:43:28.069Z,1408.00
2018-06-10T18:44:28.038Z,1356.00
2018-06-10T18:45:30.721Z,1324.00
2018-06-10T18:46:33.325Z,1304.00
2018-06-10T18:47:32.712Z,1292.00
2018-06-10T18:48:27.828Z,1284.00
2018-06-10T18:49:33.463Z,1280.00
2018-06-10T19:25:37.624Z,316.00
2018-06-10T19:26:20.256Z,296.00
2018-06-10T19:27:20.416Z,284.00
2018-06-10T19:28:21.343Z,264.00
2018-06-10T19:29:23.256Z,248.00
2018-06-10T19:30:22.072Z,232.00
2018-06-10T19:31:30.319Z,208.00
2018-06-10T19:33:01.509Z,192.00
2018-06-10T20:27:42.946Z,0.00
2018-06-10T20:28:44.358Z,0.00
2018-06-10T20:29:45.210Z,0.00
2018-06-10T20:30:44.609Z,0.00
2018-06-10T20:31:44.049Z,0.00
2018-06-10T20:32:45.395Z,0.00
2018-06-10T20:33:44.729Z,0.00
2018-06-10T20:34:46.114Z,0.00
2018-06-10T20:35:45.412Z,0.00
2018-06-10T20:37:45.320Z,0.00
2018-06-10T20:38:47.233Z,0.00
2018-06-10T20:39:46.382Z,0.00
2018-06-10T20:40:45.129Z,0.00
2018-06-10T20:41:43.808Z,0.00
2018-06-10T20:42:43.904Z,0.00
2018-06-10T20:43:43.521Z,0.00
2018-06-10T20:44:43.443Z,0.00
2018-06-10T20:45:43.851Z,0.00
2018-06-10T20:46:43.673Z,0.00
2018-06-10T20:47:44.240Z,0.00
2018-06-10T20:48:44.596Z,0.00
2018-06-10T20:53:25.965Z,0.00
2018-06-10T20:54:17.232Z,0.00
2018-06-10T20:55:01.889Z,0.00
2018-06-10T20:56:02.801Z,0.00
2018-06-10T20:57:02.965Z,0.00
2018-06-10T20:58:03.903Z,0.00
2018-06-10T20:59:12.544Z,0.00
2018-06-10T21:00:03.652Z,0.00
2018-06-10T21:01:05.235Z,0.00
2018-06-10T21:02:03.728Z,0.00
2018-06-10T21:03:06.175Z,0.00
2018-06-10T21:04:03.821Z,0.00
2018-06-10T21:05:02.030Z,0.00
2018-06-10T21:06:01.885Z,0.00
2018-06-10T21:07:02.143Z,0.00
2018-06-10T21:08:02.416Z,0.00
2018-06-10T21:09:02.141Z,0.00
